Time;durP1;ratioP1;P1;durP2;ratioP2;P2;SDS_P1;SDS_P2;PMS_P1;PMS_P2;Temp;Humidity;BMP_temperature;BMP_pressure;BME280_temperature;BME280_humidity;BME280_pressure;Samples;Min_cycle;Max_cycle;Signal;HPM_P1;HPM_P2
2021/12/07 00:01:58;;;;;;;21.15;15.57;;;12.00;99.90;;;;;;5268725;28;20049;-76
2021/12/07 00:04:29;;;;;;;18.25;14.30;;;12.00;99.90;;;;;;5270719;28;20055;-76
2021/12/07 00:07:00;;;;;;;21.98;14.88;;;12.00;99.90;;;;;;5272662;28;20028;-76
2021/12/07 00:09:31;;;;;;;22.00;14.48;;;12.10;99.90;;;;;;5272561;28;20024;-75
2021/12/07 00:12:04;;;;;;;19.63;13.07;;;12.00;99.90;;;;;;5272480;28;20024;-77
2021/12/07 00:14:39;;;;;;;21.50;15.77;;;11.90;99.90;;;;;;5272516;28;20024;-77
2021/12/07 00:17:11;;;;;;;20.42;15.25;;;11.80;99.90;;;;;;5272580;28;20471;-77
2021/12/07 00:19:42;;;;;;;27.05;18.10;;;11.90;99.90;;;;;;5272286;28;20024;-77
2021/12/07 00:22:13;;;;;;;24.70;18.38;;;11.80;99.90;;;;;;5272400;28;20486;-75
2021/12/07 00:24:43;;;;;;;44.83;30.88;;;11.80;99.90;;;;;;5272216;28;20020;-76
2021/12/07 00:27:14;;;;;;;37.63;25.27;;;11.70;99.90;;;;;;5254231;28;20054;-77
2021/12/07 00:29:46;;;;;;;31.13;22.17;;;11.80;99.90;;;;;;5272296;28;20388;-76
2021/12/07 00:37:38;;;;;;;36.33;23.65;;;11.70;99.90;;;;;;5272207;28;20020;-77
2021/12/07 00:40:11;;;;;;;29.00;22.27;;;11.80;99.90;;;;;;5272267;28;20052;-76
2021/12/07 00:42:43;;;;;;;35.35;23.15;;;11.90;99.90;;;;;;5271857;28;20028;-77
2021/12/07 00:45:17;;;;;;;29.85;21.58;;;11.70;99.90;;;;;;5271916;28;20028;-75
2021/12/07 00:47:51;;;;;;;23.60;19.10;;;11.80;99.90;;;;;;5272019;28;20024;-77
2021/12/07 00:50:24;;;;;;;32.10;23.65;;;11.80;99.90;;;;;;5271915;28;20023;-77
2021/12/07 00:52:56;;;;;;;33.05;23.55;;;11.60;99.90;;;;;;5271984;28;20016;-76
2021/12/07 00:55:31;;;;;;;36.15;26.95;;;11.70;99.90;;;;;;5271711;28;20173;-76
2021/12/07 00:58:11;;;;;;;26.00;18.98;;;11.60;99.90;;;;;;5271712;28;20501;-77
2021/12/07 01:00:44;;;;;;;28.25;19.95;;;11.70;99.90;;;;;;5271664;28;20106;-76
2021/12/07 01:03:16;;;;;;;28.50;20.48;;;11.80;99.90;;;;;;5271712;28;20044;-77
2021/12/07 01:05:51;;;;;;;23.90;17.73;;;11.60;99.90;;;;;;5271603;28;20028;-76
2021/12/07 01:08:47;;;;;;;28.33;19.65;;;11.60;99.90;;;;;;5271719;28;20107;-76
2021/12/07 01:25:35;;;;;;;24.17;16.17;;;11.60;99.90;;;;;;5271384;28;20112;-77
2021/12/07 01:28:24;;;;;;;22.60;15.98;;;11.70;99.90;;;;;;5271427;28;20020;-77
2021/12/07 01:31:11;;;;;;;31.70;23.98;;;11.60;99.90;;;;;;5271119;28;20031;-76
2021/12/07 02:01:11;;;;;;;22.35;14.07;;;11.70;99.90;;;;;;5270336;28;20518;-76
2021/12/07 02:03:41;;;;;;;18.00;13.98;;;11.60;99.90;;;;;;5270302;28;20042;-76
2021/12/07 02:06:13;;;;;;;25.10;14.57;;;11.60;99.90;;;;;;5270417;28;20024;-76
2021/12/07 02:08:44;;;;;;;23.08;15.02;;;11.60;99.90;;;;;;5270382;28;20100;-76
2021/12/07 02:11:15;;;;;;;18.65;14.02;;;11.50;99.90;;;;;;5270331;28;20534;-75
2021/12/07 02:16:19;;;;;;;19.83;14.45;;;11.60;99.90;;;;;;5270079;28;20032;-76
2021/12/07 02:18:50;;;;;;;21.90;14.18;;;11.60;99.90;;;;;;5270205;28;20062;-76
2021/12/07 02:21:23;;;;;;;21.00;14.55;;;11.70;99.90;;;;;;5270029;28;20051;-76
2021/12/07 02:23:54;;;;;;;21.75;16.30;;;11.60;99.90;;;;;;5270116;28;20352;-75
2021/12/07 02:26:25;;;;;;;21.77;15.20;;;11.40;99.90;;;;;;5269877;28;20031;-76
2021/12/07 02:28:57;;;;;;;21.83;14.55;;;11.60;99.90;;;;;;5269972;28;20433;-76
2021/12/07 02:31:28;;;;;;;25.70;15.98;;;11.40;99.90;;;;;;5269864;28;20495;-76
2021/12/07 02:33:59;;;;;;;25.23;16.35;;;11.40;99.90;;;;;;5269881;28;20071;-76
2021/12/07 02:36:30;;;;;;;20.08;15.05;;;11.60;99.90;;;;;;5269733;28;20044;-77
2021/12/07 02:39:01;;;;;;;21.35;14.80;;;11.40;99.90;;;;;;5269828;28;20016;-76
2021/12/07 02:41:32;;;;;;;22.20;14.98;;;11.40;99.90;;;;;;5269716;28;20107;-75
2021/12/07 02:44:07;;;;;;;21.88;14.77;;;11.50;99.90;;;;;;5269545;28;20032;-76
2021/12/07 02:46:39;;;;;;;19.88;15.18;;;11.30;99.90;;;;;;5269895;28;20043;-77
2021/12/07 02:49:10;;;;;;;20.98;14.95;;;11.40;99.90;;;;;;5269690;28;20450;-77
2021/12/07 02:51:41;;;;;;;23.00;17.35;;;11.40;99.90;;;;;;5269474;28;20107;-77
2021/12/07 02:54:12;;;;;;;22.15;15.88;;;11.40;99.90;;;;;;5270004;28;20103;-77
2021/12/07 02:56:43;;;;;;;24.17;17.63;;;11.60;99.90;;;;;;5269592;28;20028;-76
2021/12/07 02:59:14;;;;;;;23.15;16.13;;;11.50;99.90;;;;;;5269660;28;20099;-76
2021/12/07 03:01:52;;;;;;;26.20;16.35;;;11.50;99.90;;;;;;5269493;28;20608;-76
2021/12/07 03:04:29;;;;;;;25.25;16.65;;;11.60;99.90;;;;;;5269345;28;20454;-76
2021/12/07 03:07:16;;;;;;;21.67;14.75;;;11.40;99.90;;;;;;5269635;28;20161;-76
2021/12/07 03:27:01;;;;;;;25.15;15.30;;;11.50;99.90;;;;;;5225516;28;20029;-76
2021/12/07 03:29:33;;;;;;;22.17;16.05;;;11.60;99.90;;;;;;5261724;28;20513;-76
2021/12/07 03:32:04;;;;;;;21.25;15.15;;;11.60;99.90;;;;;;5269208;28;20032;-78
2021/12/07 03:34:35;;;;;;;21.38;15.63;;;11.60;99.90;;;;;;5269003;28;20032;-75
2021/12/07 03:37:06;;;;;;;19.52;14.82;;;11.70;99.90;;;;;;5269159;28;20030;-76
2021/12/07 03:39:41;;;;;;;24.88;15.57;;;11.60;99.90;;;;;;5271978;28;20028;-75
2021/12/07 03:42:12;;;;;;;92.78;64.07;;;11.50;99.90;;;;;;5273539;28;20055;-76
2021/12/07 03:44:43;;;;;;;25.65;18.25;;;11.50;99.90;;;;;;5273337;28;20059;-76
2021/12/07 03:47:14;;;;;;;24.17;16.73;;;11.60;99.90;;;;;;5273254;28;20023;-76
2021/12/07 03:49:45;;;;;;;43.97;30.45;;;11.70;99.90;;;;;;5273114;28;20028;-76
2021/12/07 03:52:15;;;;;;;38.85;28.10;;;11.50;99.90;;;;;;5272979;28;20021;-76
2021/12/07 03:54:46;;;;;;;38.05;24.75;;;11.60;99.90;;;;;;5273157;28;20016;-77
2021/12/07 03:57:17;;;;;;;40.78;28.25;;;11.40;99.90;;;;;;5273115;28;20028;-76
2021/12/07 03:59:48;;;;;;;24.50;19.00;;;11.60;99.90;;;;;;5272925;28;20099;-76
2021/12/07 04:02:19;;;;;;;25.42;16.27;;;11.60;99.90;;;;;;5272909;28;20111;-76
2021/12/07 04:04:58;;;;;;;23.85;16.88;;;11.40;99.90;;;;;;5272735;28;20066;-76
2021/12/07 04:07:29;;;;;;;23.33;15.52;;;11.50;99.90;;;;;;5272724;28;20027;-76
2021/12/07 04:09:59;;;;;;;25.63;15.50;;;11.50;99.90;;;;;;5272778;28;20032;-76
2021/12/07 04:12:30;;;;;;;22.00;14.27;;;11.50;99.90;;;;;;5272685;28;20105;-76
2021/12/07 04:15:02;;;;;;;21.75;15.05;;;11.50;99.90;;;;;;5272569;28;20036;-77
2021/12/07 04:17:33;;;;;;;23.23;17.95;;;11.50;99.90;;;;;;5273236;28;20073;-77
2021/12/07 04:20:07;;;;;;;27.15;19.52;;;11.50;99.90;;;;;;5272722;28;20031;-76
2021/12/07 04:22:38;;;;;;;29.88;20.02;;;11.50;99.90;;;;;;5272621;28;20494;-77
2021/12/07 04:25:11;;;;;;;23.38;16.58;;;11.40;99.90;;;;;;5272556;28;20024;-76
2021/12/07 04:27:44;;;;;;;27.52;18.00;;;11.50;99.90;;;;;;5272554;28;20016;-76
2021/12/07 04:30:30;;;;;;;28.23;16.67;;;11.30;99.90;;;;;;5272366;28;20115;-77
2021/12/07 04:33:02;;;;;;;24.60;16.70;;;11.40;99.90;;;;;;5272357;28;20028;-76
2021/12/07 04:35:35;;;;;;;33.78;15.77;;;11.30;99.90;;;;;;5272450;28;20126;-76
2021/12/07 04:38:06;;;;;;;22.95;16.95;;;11.30;99.90;;;;;;5272296;28;20479;-77
2021/12/07 04:40:37;;;;;;;29.77;17.48;;;11.20;99.90;;;;;;5272296;28;20039;-76
2021/12/07 04:43:09;;;;;;;22.75;17.20;;;11.30;99.90;;;;;;5272011;28;20027;-76
2021/12/07 04:59:23;;;;;;;27.15;20.50;;;11.40;99.90;;;;;;5271900;28;19911;-77
2021/12/07 05:01:54;;;;;;;22.58;16.85;;;11.40;99.90;;;;;;5271779;28;20016;-77
2021/12/07 05:04:29;;;;;;;22.75;15.68;;;11.40;99.90;;;;;;5271550;28;20484;-76
2021/12/07 05:07:17;;;;;;;27.45;16.92;;;11.40;99.90;;;;;;5271769;28;20043;-76
2021/12/07 05:12:26;;;;;;;36.13;23.17;;;11.30;99.90;;;;;;5271395;28;20024;-75
2021/12/07 05:15:07;;;;;;;44.30;27.00;;;11.50;99.90;;;;;;5271418;28;20028;-76
2021/12/07 05:39:58;;;;;;;5.40;4.25;;;12.00;99.90;;;;;;5271153;28;20088;-75
2021/12/07 05:42:29;;;;;;;8.23;4.45;;;13.00;99.90;;;;;;5270943;28;20035;-76
2021/12/07 05:45:00;;;;;;;8.07;4.20;;;12.70;99.90;;;;;;5271493;28;20099;-76
2021/12/07 05:47:30;;;;;;;8.30;4.03;;;13.00;99.90;;;;;;5271471;28;20028;-76
2021/12/07 05:50:05;;;;;;;5.78;4.03;;;13.00;99.90;;;;;;5270949;28;20024;-76
2021/12/07 05:52:36;;;;;;;7.68;4.65;;;12.90;99.90;;;;;;5270820;28;20024;-76
2021/12/07 05:55:07;;;;;;;9.77;4.57;;;12.80;99.90;;;;;;5270732;28;20502;-76
2021/12/07 05:57:39;;;;;;;8.65;5.10;;;12.60;99.90;;;;;;5270918;28;20035;-76
2021/12/07 06:00:23;;;;;;;8.70;4.65;;;12.40;99.90;;;;;;5270735;28;20121;-76
2021/12/07 06:02:57;;;;;;;11.27;5.40;;;12.70;99.90;;;;;;5270113;28;20028;-76
2021/12/07 06:05:28;;;;;;;13.60;5.82;;;12.40;99.90;;;;;;5270513;28;20063;-76
2021/12/07 06:07:59;;;;;;;9.32;5.28;;;12.50;99.90;;;;;;5270783;28;20065;-76
2021/12/07 06:10:32;;;;;;;9.25;4.07;;;12.60;99.90;;;;;;5270699;28;20459;-76
2021/12/07 06:13:03;;;;;;;9.98;3.38;;;12.70;99.90;;;;;;5270332;28;20024;-76
2021/12/07 06:15:36;;;;;;;7.60;3.15;;;12.90;99.90;;;;;;5252204;28;20044;-75
2021/12/07 06:18:07;;;;;;;4.85;2.78;;;13.20;99.90;;;;;;5270637;28;20471;-77
2021/12/07 06:20:40;;;;;;;9.98;3.22;;;13.10;99.90;;;;;;5270116;28;20028;-76
2021/12/07 06:23:14;;;;;;;7.97;3.65;;;13.00;99.90;;;;;;5269881;28;20047;-75
2021/12/07 06:25:46;;;;;;;8.60;3.38;;;12.90;99.90;;;;;;5270113;28;20116;-76
2021/12/07 06:28:17;;;;;;;6.72;2.97;;;13.10;99.90;;;;;;5270362;28;20024;-75
2021/12/07 06:30:49;;;;;;;6.07;3.50;;;13.40;99.90;;;;;;5270805;28;20468;-76
2021/12/07 06:33:23;;;;;;;9.60;3.67;;;13.40;99.90;;;;;;5269489;28;20050;-75
2021/12/07 06:35:58;;;;;;;7.72;3.75;;;12.90;99.90;;;;;;5269392;28;20036;-75
2021/12/07 06:38:32;;;;;;;6.95;5.07;;;12.90;99.90;;;;;;5269490;28;20012;-75
2021/12/07 06:41:05;;;;;;;91.50;50.60;;;13.10;99.90;;;;;;5269506;28;20031;-75
2021/12/07 06:43:35;;;;;;;18.75;10.05;;;12.90;99.90;;;;;;5269498;28;20032;-75
2021/12/07 06:46:07;;;;;;;101.38;51.42;;;12.80;99.90;;;;;;5269646;28;20028;-75
2021/12/07 06:48:38;;;;;;;24.48;11.90;;;12.80;99.90;;;;;;5269276;28;20032;-76
2021/12/07 06:51:09;;;;;;;99.88;49.67;;;12.80;99.90;;;;;;5269344;28;20518;-75
2021/12/07 06:53:40;;;;;;;51.22;29.77;;;12.90;99.90;;;;;;5269331;28;20108;-76
2021/12/07 06:56:11;;;;;;;13.57;7.05;;;13.20;99.90;;;;;;5269144;28;20036;-75
2021/12/07 06:58:42;;;;;;;12.90;4.63;;;13.00;99.90;;;;;;5269144;28;20426;-75
2021/12/07 07:01:13;;;;;;;6.35;3.05;;;13.30;99.90;;;;;;5269541;28;20027;-75
2021/12/07 07:03:44;;;;;;;15.90;5.18;;;13.50;99.90;;;;;;5269302;28;20040;-75
2021/12/07 07:06:17;;;;;;;12.77;7.20;;;13.40;99.90;;;;;;5269795;28;20026;-75
2021/12/07 07:08:50;;;;;;;16.50;10.75;;;13.10;99.90;;;;;;5269673;28;20499;-75
2021/12/07 07:11:21;;;;;;;169.88;100.32;;;13.00;99.90;;;;;;5269297;28;20024;-75
2021/12/07 07:13:52;;;;;;;20.15;12.52;;;13.00;99.90;;;;;;5268608;28;20031;-77
2021/12/07 07:16:23;;;;;;;8.90;5.68;;;13.40;99.90;;;;;;5269020;28;20122;-75
2021/12/07 07:18:54;;;;;;;11.15;6.05;;;13.80;99.90;;;;;;5269415;28;20430;-75
2021/12/07 07:21:25;;;;;;;18.38;11.10;;;14.20;99.90;;;;;;5269201;28;20115;-75
2021/12/07 07:23:56;;;;;;;14.75;8.77;;;14.10;99.90;;;;;;5269218;28;20078;-75
2021/12/07 07:26:27;;;;;;;12.73;4.70;;;14.10;99.90;;;;;;5251616;28;20443;-75
2021/12/07 07:28:58;;;;;;;8.00;5.57;;;14.00;99.90;;;;;;5251288;28;20073;-76
2021/12/07 07:31:28;;;;;;;9.35;5.20;;;14.20;99.90;;;;;;5269199;28;20027;-75
2021/12/07 07:33:59;;;;;;;6.47;3.80;;;14.30;99.90;;;;;;5269038;28;20429;-76
2021/12/07 07:36:30;;;;;;;6.25;3.53;;;14.40;99.90;;;;;;5269078;28;20036;-75
2021/12/07 07:39:01;;;;;;;7.57;3.20;;;14.50;99.90;;;;;;5269336;28;20016;-75
2021/12/07 07:41:32;;;;;;;7.40;3.22;;;14.40;99.90;;;;;;5269079;28;20038;-75
2021/12/07 07:44:03;;;;;;;4.82;2.40;;;14.50;99.90;;;;;;5269031;28;20462;-76
2021/12/07 07:46:34;;;;;;;8.68;2.05;;;14.50;99.90;;;;;;5269112;28;20111;-76
2021/12/07 07:49:05;;;;;;;6.75;2.65;;;14.80;99.90;;;;;;5269221;28;20099;-76
2021/12/07 07:51:36;;;;;;;3.55;1.98;;;15.10;99.90;;;;;;5268998;28;20532;-76
2021/12/07 07:54:07;;;;;;;10.23;2.40;;;14.90;99.90;;;;;;5269420;28;20095;-76
2021/12/07 07:56:39;;;;;;;6.85;2.28;;;14.80;99.90;;;;;;5268928;28;20036;-76
2021/12/07 07:59:10;;;;;;;9.23;2.83;;;14.70;99.90;;;;;;5269231;28;20510;-76
2021/12/07 08:01:40;;;;;;;7.32;2.47;;;14.70;99.90;;;;;;5269200;28;20024;-75
2021/12/07 08:04:11;;;;;;;7.35;2.22;;;14.60;99.90;;;;;;5268712;28;20044;-75
2021/12/07 08:06:42;;;;;;;6.75;2.25;;;14.60;99.90;;;;;;5269028;28;20020;-76
2021/12/07 08:09:13;;;;;;;5.30;2.17;;;14.40;99.90;;;;;;5268779;28;20115;-76
2021/12/07 08:11:44;;;;;;;4.88;3.00;;;14.30;99.90;;;;;;5250809;28;20055;-75
2021/12/07 08:14:17;;;;;;;5.97;2.33;;;14.20;99.90;;;;;;5268533;28;20032;-76
2021/12/07 08:16:48;;;;;;;4.65;2.33;;;14.30;99.90;;;;;;5268915;28;20368;-75
2021/12/07 08:19:19;;;;;;;8.80;4.60;;;14.30;99.90;;;;;;5268840;28;20478;-76
2021/12/07 08:21:50;;;;;;;12.05;6.75;;;14.30;99.90;;;;;;5268553;28;20044;-76
2021/12/07 08:24:20;;;;;;;29.48;14.88;;;14.20;99.90;;;;;;5268886;28;20153;-75
2021/12/07 08:26:51;;;;;;;5.85;2.83;;;14.20;99.90;;;;;;5272609;28;20061;-75
2021/12/07 08:29:22;;;;;;;8.00;3.53;;;14.10;99.90;;;;;;5272439;28;20459;-75
2021/12/07 08:31:53;;;;;;;7.95;3.85;;;14.10;99.90;;;;;;5272204;28;20035;-75
2021/12/07 08:34:24;;;;;;;23.98;12.18;;;14.10;99.90;;;;;;5271913;28;20021;-75
2021/12/07 08:36:55;;;;;;;23.95;14.05;;;13.90;99.90;;;;;;5271905;28;20494;-75
2021/12/07 08:39:26;;;;;;;8.93;4.90;;;14.00;99.90;;;;;;5271833;28;20020;-76
2021/12/07 08:41:56;;;;;;;9.10;4.60;;;13.80;99.90;;;;;;5271803;28;20020;-76
2021/12/07 08:44:28;;;;;;;9.73;4.20;;;13.80;99.90;;;;;;5271710;28;20047;-75
2021/12/07 08:47:00;;;;;;;10.60;4.20;;;13.80;99.90;;;;;;5271684;28;20077;-76
2021/12/07 08:49:31;;;;;;;6.07;4.03;;;13.90;99.90;;;;;;5270710;28;20021;-76
2021/12/07 08:52:02;;;;;;;10.60;4.93;;;14.00;99.90;;;;;;5270461;28;20024;-75
2021/12/07 09:00:17;;;;;;;10.57;3.55;;;14.20;99.90;;;;;;5271608;28;20063;-74
2021/12/07 09:02:47;;;;;;;8.23;4.55;;;14.30;99.90;;;;;;5270765;28;20044;-75
2021/12/07 09:05:18;;;;;;;8.48;4.65;;;14.50;99.90;;;;;;5271135;28;20095;-74
2021/12/07 09:07:50;;;;;;;13.23;8.02;;;14.40;99.90;;;;;;5271273;28;20028;-76
2021/12/07 09:10:22;;;;;;;11.93;7.07;;;14.40;99.90;;;;;;5271834;28;20047;-75
2021/12/07 09:12:53;;;;;;;14.07;6.55;;;14.30;99.90;;;;;;5271692;28;20031;-75
2021/12/07 09:15:24;;;;;;;8.27;3.90;;;14.20;99.90;;;;;;5271340;28;20415;-75
2021/12/07 09:17:55;;;;;;;11.70;4.72;;;14.20;99.90;;;;;;5252553;28;20056;-74
2021/12/07 09:20:26;;;;;;;14.15;5.72;;;14.20;99.90;;;;;;5260009;28;20054;-74
2021/12/07 09:22:57;;;;;;;11.80;4.55;;;14.20;99.90;;;;;;5257404;28;20026;-74
2021/12/07 09:25:28;;;;;;;9.80;4.78;;;13.90;99.90;;;;;;5257465;28;20028;-74
2021/12/07 09:27:59;;;;;;;10.30;5.15;;;13.90;99.90;;;;;;5262749;28;20019;-74
2021/12/07 09:30:30;;;;;;;8.25;3.22;;;13.80;99.90;;;;;;5254236;28;20032;-73
2021/12/07 09:33:03;;;;;;;8.25;4.32;;;13.90;99.90;;;;;;5257424;28;20012;-74
2021/12/07 09:35:35;;;;;;;99.53;57.35;;;14.00;99.90;;;;;;5259774;28;20127;-73
2021/12/07 09:38:06;;;;;;;11.98;4.40;;;13.90;99.90;;;;;;5261401;28;20008;-74
2021/12/07 09:40:37;;;;;;;10.10;4.97;;;13.60;99.90;;;;;;5257372;28;20086;-74
2021/12/07 09:43:09;;;;;;;8.30;4.55;;;13.60;99.90;;;;;;5257878;28;20020;-74
2021/12/07 09:45:42;;;;;;;10.80;3.75;;;13.60;99.90;;;;;;5263919;28;20051;-74
2021/12/07 09:48:13;;;;;;;5.47;3.33;;;13.60;99.90;;;;;;5270088;28;20059;-74
2021/12/07 09:50:50;;;;;;;8.25;2.88;;;13.80;99.90;;;;;;5263895;28;20028;-76
2021/12/07 09:53:24;;;;;;;9.68;3.22;;;13.70;99.90;;;;;;5264120;28;20103;-75
2021/12/07 09:55:58;;;;;;;5.65;3.00;;;13.60;99.90;;;;;;5260471;28;20077;-74
2021/12/07 09:58:29;;;;;;;6.25;2.83;;;13.70;99.90;;;;;;5254652;28;20028;-75
2021/12/07 10:01:00;;;;;;;7.10;2.30;;;13.60;99.90;;;;;;5231726;28;20403;-76
2021/12/07 10:03:31;;;;;;;5.20;2.30;;;13.60;99.90;;;;;;5249047;28;20056;-75
2021/12/07 10:06:02;;;;;;;4.75;2.10;;;13.80;99.90;;;;;;5249286;28;20024;-74
2021/12/07 10:08:34;;;;;;;3.88;2.38;;;13.50;99.90;;;;;;5249620;28;20393;-75
2021/12/07 10:11:08;;;;;;;5.25;2.92;;;13.40;99.90;;;;;;5249407;28;20037;-74
2021/12/07 10:13:41;;;;;;;7.57;3.30;;;13.50;99.90;;;;;;5249483;28;20388;-75
2021/12/07 10:16:14;;;;;;;2.65;2.10;;;13.50;99.90;;;;;;5249174;28;20134;-75
2021/12/07 10:18:46;;;;;;;5.68;2.60;;;13.60;99.90;;;;;;5249368;28;20099;-75
2021/12/07 10:21:20;;;;;;;5.65;2.70;;;13.70;99.90;;;;;;5249028;28;20025;-75
2021/12/07 10:24:07;;;;;;;7.30;2.78;;;13.60;99.90;;;;;;5248676;28;20066;-74
2021/12/07 10:26:42;;;;;;;7.65;2.63;;;13.60;99.90;;;;;;5248993;28;20029;-74
2021/12/07 10:29:15;;;;;;;104.55;36.85;;;13.60;99.90;;;;;;5249237;28;20016;-74
2021/12/07 10:31:53;;;;;;;11.40;4.10;;;13.50;99.90;;;;;;5248283;28;20036;-75
2021/12/07 10:34:29;;;;;;;22.67;11.25;;;13.40;99.90;;;;;;5248010;28;20056;-75
2021/12/07 10:37:14;;;;;;;18.67;10.32;;;13.40;99.90;;;;;;5230528;28;20044;-75
2021/12/07 10:39:51;;;;;;;13.20;7.63;;;13.50;99.90;;;;;;5248541;28;20021;-75
2021/12/07 10:42:28;;;;;;;7.32;3.78;;;13.20;99.90;;;;;;5248310;28;20413;-75
2021/12/07 10:45:04;;;;;;;5.90;2.92;;;13.40;99.90;;;;;;5248152;28;20033;-74
2021/12/07 10:47:35;;;;;;;5.97;3.28;;;13.30;99.90;;;;;;5247902;28;20025;-75
2021/12/07 10:50:09;;;;;;;9.50;3.72;;;13.40;99.90;;;;;;5247754;28;20032;-75
2021/12/07 10:52:42;;;;;;;5.57;3.30;;;13.30;99.90;;;;;;5248321;28;20029;-75
2021/12/07 10:55:17;;;;;;;8.82;3.00;;;13.40;99.90;;;;;;5248102;28;20052;-75
2021/12/07 10:57:58;;;;;;;322.17;160.45;;;13.60;99.90;;;;;;5248032;28;20025;-75
2021/12/07 11:00:40;;;;;;;55.05;30.42;;;13.50;99.90;;;;;;5248163;28;20021;-75
2021/12/07 11:03:20;;;;;;;7.72;4.20;;;13.70;99.90;;;;;;5248111;28;20041;-74
2021/12/07 11:05:54;;;;;;;40.85;21.45;;;13.60;99.90;;;;;;5248131;28;20058;-75
2021/12/07 11:08:29;;;;;;;8.02;3.83;;;13.80;99.90;;;;;;5248107;28;20051;-75
2021/12/07 11:11:03;;;;;;;7.43;3.60;;;13.80;99.90;;;;;;5248168;28;20048;-74
2021/12/07 11:13:36;;;;;;;21.60;11.65;;;13.70;99.90;;;;;;5247953;28;20027;-75
2021/12/07 11:16:14;;;;;;;23.15;14.32;;;13.80;99.90;;;;;;5247737;28;20162;-74
2021/12/07 11:18:48;;;;;;;6.63;3.70;;;13.90;99.90;;;;;;5247943;28;20147;-75
2021/12/07 11:21:20;;;;;;;8.27;2.13;;;13.80;99.90;;;;;;5248021;28;20032;-74
2021/12/07 11:23:55;;;;;;;5.43;2.45;;;13.80;99.90;;;;;;5247972;28;20028;-74
2021/12/07 11:31:49;;;;;;;7.03;2.97;;;13.80;99.90;;;;;;5248189;28;20074;-75
2021/12/07 11:34:30;;;;;;;11.85;6.47;;;13.80;99.90;;;;;;5247864;28;20074;-75
2021/12/07 11:37:13;;;;;;;7.15;4.15;;;13.80;99.90;;;;;;5247650;28;20044;-75
2021/12/07 11:39:51;;;;;;;9.52;4.80;;;13.80;99.90;;;;;;5247962;28;20029;-75
2021/12/07 11:42:28;;;;;;;7.22;3.97;;;13.80;99.90;;;;;;5247716;28;20477;-75
2021/12/07 11:45:03;;;;;;;6.43;3.47;;;13.80;99.90;;;;;;5247636;28;20081;-75
2021/12/07 11:47:39;;;;;;;9.75;5.03;;;13.80;99.90;;;;;;5229886;28;20086;-75
2021/12/07 11:50:14;;;;;;;15.18;8.23;;;13.80;99.90;;;;;;5247606;28;20028;-75
2021/12/07 11:52:47;;;;;;;8.25;5.30;;;13.70;99.90;;;;;;5247771;28;20091;-74
2021/12/07 11:55:19;;;;;;;4.35;2.80;;;13.80;99.90;;;;;;5247532;28;20078;-75
2021/12/07 11:57:51;;;;;;;5.55;3.08;;;13.90;99.90;;;;;;5247507;28;20035;-74
2021/12/07 12:00:28;;;;;;;8.88;3.22;;;14.00;99.90;;;;;;5249560;28;20468;-75
2021/12/07 12:02:59;;;;;;;12.30;8.02;;;14.10;99.90;;;;;;5251472;28;20048;-75
2021/12/07 12:05:30;;;;;;;9.50;6.47;;;14.00;99.90;;;;;;5251553;28;20021;-74
2021/12/07 12:08:07;;;;;;;8.30;6.78;;;13.90;99.90;;;;;;5249286;28;20028;-75
2021/12/07 12:10:40;;;;;;;7.53;5.30;;;13.90;99.90;;;;;;5273036;28;20027;-76
2021/12/07 12:13:15;;;;;;;11.27;5.88;;;13.90;99.90;;;;;;5272782;28;20063;-75
2021/12/07 12:16:43;;;;;;;7.38;4.07;;;13.80;99.90;;;;;;5272602;28;20036;-78
2021/12/07 12:19:38;;;;;;;7.22;4.63;;;13.70;99.90;;;;;;5147302;28;20069;-75
2021/12/07 12:22:20;;;;;;;7.13;4.25;;;13.60;99.90;;;;;;5146027;28;20118;-75
2021/12/07 12:24:53;;;;;;;8.52;3.65;;;13.60;99.90;;;;;;5149293;28;20043;-76
2021/12/07 12:27:32;;;;;;;6.15;2.88;;;13.50;99.90;;;;;;5167554;28;20023;-75
2021/12/07 12:30:22;;;;;;;4.45;3.05;;;13.60;99.90;;;;;;5167307;28;20117;-75
2021/12/07 12:32:56;;;;;;;8.20;3.67;;;13.50;99.90;;;;;;5167447;28;20030;-75
2021/12/07 12:35:38;;;;;;;13.65;7.50;;;13.30;99.90;;;;;;5167463;28;20050;-76
2021/12/07 12:38:23;;;;;;;13.45;6.07;;;13.40;99.90;;;;;;5167294;28;20574;-76
2021/12/07 12:40:55;;;;;;;10.38;3.95;;;13.40;99.90;;;;;;5167383;28;20034;-75
2021/12/07 12:43:46;;;;;;;7.43;3.40;;;13.20;99.90;;;;;;5166909;28;20045;-74
2021/12/07 12:46:25;;;;;;;8.38;3.55;;;13.30;99.90;;;;;;5167075;28;20038;-76
2021/12/07 12:48:58;;;;;;;8.00;4.10;;;13.20;99.90;;;;;;5177917;28;20483;-78
2021/12/07 12:51:32;;;;;;;19.95;11.10;;;13.00;99.90;;;;;;5271677;28;20024;-76
2021/12/07 12:54:08;;;;;;;9.20;4.50;;;13.00;99.90;;;;;;5271986;28;20028;-76
2021/12/07 12:56:39;;;;;;;8.75;4.95;;;12.90;99.90;;;;;;5272038;28;20028;-75
2021/12/07 12:59:12;;;;;;;11.75;5.38;;;12.80;99.90;;;;;;5271908;28;20115;-75
2021/12/07 13:01:46;;;;;;;9.85;5.05;;;12.70;99.90;;;;;;5271909;28;20027;-79
2021/12/07 13:04:28;;;;;;;11.13;5.13;;;12.70;99.90;;;;;;5271491;28;20491;-75
2021/12/07 13:07:02;;;;;;;15.00;5.60;;;12.70;99.90;;;;;;5271625;28;20038;-79
2021/12/07 13:09:38;;;;;;;14.20;6.68;;;12.70;99.90;;;;;;5271300;28;20017;-80
2021/12/07 13:12:18;;;;;;;7.10;5.03;;;12.70;99.90;;;;;;5251037;28;20043;-76
2021/12/07 13:14:49;;;;;;;13.05;8.18;;;12.70;99.90;;;;;;5250319;28;20059;-75
2021/12/07 13:17:37;;;;;;;12.77;6.10;;;12.60;99.90;;;;;;5250857;28;20028;-78
2021/12/07 13:20:20;;;;;;;17.90;6.50;;;12.70;99.90;;;;;;5250226;28;20017;-77
2021/12/07 13:22:57;;;;;;;10.38;6.07;;;12.60;99.90;;;;;;5250674;28;20032;-76
2021/12/07 13:25:48;;;;;;;13.90;6.35;;;12.50;99.90;;;;;;5250393;28;20027;-76
2021/12/07 13:28:30;;;;;;;12.13;6.50;;;12.40;99.90;;;;;;5250439;28;20033;-75
2021/12/07 13:31:10;;;;;;;14.13;6.38;;;12.50;99.90;;;;;;5250545;28;20035;-75
2021/12/07 13:33:53;;;;;;;12.18;6.55;;;12.50;99.90;;;;;;5250587;28;20510;-76
2021/12/07 13:36:37;;;;;;;13.27;6.75;;;12.50;99.90;;;;;;5249970;28;20123;-77
2021/12/07 13:39:14;;;;;;;9.25;5.28;;;12.40;99.90;;;;;;5250588;28;20020;-76
2021/12/07 13:41:48;;;;;;;8.50;5.05;;;12.30;99.90;;;;;;5250217;28;20052;-75
2021/12/07 13:44:19;;;;;;;10.35;5.07;;;12.40;99.90;;;;;;5249863;28;20032;-77
2021/12/07 13:46:55;;;;;;;7.82;4.70;;;12.40;99.90;;;;;;5249793;28;20491;-75
2021/12/07 13:49:26;;;;;;;8.93;4.30;;;12.50;99.90;;;;;;5249997;28;20082;-76
2021/12/07 13:51:57;;;;;;;8.50;4.60;;;12.50;99.90;;;;;;5249903;28;20025;-74
2021/12/07 13:54:28;;;;;;;34.38;19.33;;;12.40;99.90;;;;;;5254485;28;20031;-76
2021/12/07 13:56:59;;;;;;;14.63;9.02;;;12.20;99.90;;;;;;5261859;28;20039;-76
2021/12/07 13:59:29;;;;;;;31.58;20.23;;;12.30;99.90;;;;;;5257340;28;20016;-75
2021/12/07 14:02:00;;;;;;;17.90;12.00;;;12.30;99.90;;;;;;5269861;28;20490;-75
2021/12/07 14:04:31;;;;;;;14.40;5.68;;;12.30;99.90;;;;;;5260214;28;20119;-76
2021/12/07 14:07:02;;;;;;;52.88;31.75;;;12.20;99.90;;;;;;5254887;28;20059;-76
2021/12/07 14:09:33;;;;;;;13.23;6.90;;;12.00;99.90;;;;;;5257059;28;20115;-75
2021/12/07 14:12:04;;;;;;;9.27;5.35;;;11.90;99.90;;;;;;5261120;28;20111;-74
2021/12/07 14:14:35;;;;;;;20.67;14.30;;;11.90;99.90;;;;;;5269653;28;20086;-75
2021/12/07 14:17:06;;;;;;;21.90;14.57;;;12.00;99.90;;;;;;5270237;28;20032;-74
2021/12/07 14:19:37;;;;;;;9.90;6.57;;;11.90;99.90;;;;;;5270079;28;20059;-75
2021/12/07 14:22:07;;;;;;;24.55;15.20;;;11.90;99.90;;;;;;5259294;28;20048;-74
2021/12/07 14:24:38;;;;;;;22.27;12.38;;;11.70;99.90;;;;;;5230727;28;20055;-75
2021/12/07 14:27:09;;;;;;;12.75;5.13;;;11.70;99.90;;;;;;5249129;28;20078;-74
2021/12/07 14:29:42;;;;;;;11.80;5.95;;;11.70;99.90;;;;;;5249330;28;20064;-76
2021/12/07 14:32:13;;;;;;;14.13;7.45;;;11.70;99.90;;;;;;5249075;28;20115;-73
2021/12/07 14:34:47;;;;;;;13.77;7.80;;;11.70;99.90;;;;;;5249011;28;20100;-74
2021/12/07 14:37:18;;;;;;;10.68;7.47;;;11.70;99.90;;;;;;5249036;28;20032;-75
2021/12/07 14:39:49;;;;;;;19.17;6.65;;;11.60;99.90;;;;;;5248970;28;20357;-74
2021/12/07 14:42:21;;;;;;;17.73;7.13;;;11.50;99.90;;;;;;5231054;28;20480;-76
2021/12/07 14:44:56;;;;;;;10.45;6.32;;;11.50;99.90;;;;;;5248981;28;20384;-75
2021/12/07 14:47:28;;;;;;;20.88;14.77;;;11.50;99.90;;;;;;5248822;28;20025;-74
2021/12/07 14:50:00;;;;;;;14.18;10.50;;;11.60;99.90;;;;;;5257392;28;20414;-77
2021/12/07 14:52:35;;;;;;;15.15;9.23;;;11.50;99.90;;;;;;5255842;28;20041;-76
2021/12/07 14:55:07;;;;;;;18.05;14.45;;;11.40;99.90;;;;;;5248322;28;20055;-76
2021/12/07 14:57:40;;;;;;;18.38;10.60;;;11.50;99.90;;;;;;5267928;28;20028;-75
2021/12/07 15:00:11;;;;;;;15.68;9.32;;;11.40;99.90;;;;;;5269050;28;20028;-76
2021/12/07 15:02:43;;;;;;;22.58;8.68;;;11.20;99.90;;;;;;5251003;28;20032;-75
2021/12/07 15:05:14;;;;;;;29.73;17.88;;;11.20;99.90;;;;;;5269227;28;20035;-75